Adamsville, Utah
Current Conditions -  °F | °C
As of 6:52 PM on Wednesday 17 Dec 2014 (Local Time) from KMLF Reporting Station
Overcast Overcast  
Wind Chill: 31°   Ceiling: 6000
Heat Index: 38°   Visibility: 10mi
Dew Point: 32°   Wind: 10mph
Humidity: 79%   Direction: 200°SSW
Pressure: 30.02"   Gusts: NA
Location:  38.2672°N, 112.728°W
Report Text: KMLF 180152Z AUTO 20009KT 10SM FEW048 BKN060 OVC080 03/00 A3002 RMK AO2 RAE40 SLP170 P0000 T00330000 TSNO
Loading
Personal Weather Stations






























Interactive Weather Map New forecast layout! Learn more

10-Day Weather Forecast

Advertisements
Track Severe Weather on mobile